createdAt,value
2022-08-27T00:02:04.630Z,8.38
2022-08-27T00:04:32.920Z,6.45
2022-08-27T00:07:01.353Z,8.57
2022-08-27T00:09:29.969Z,8.05
2022-08-27T00:11:58.284Z,7.93
2022-08-27T00:14:27.746Z,7.43
2022-08-27T00:16:56.914Z,7.70
2022-08-27T00:19:25.152Z,7.93
2022-08-27T00:21:52.645Z,7.93
2022-08-27T00:24:20.132Z,7.00
2022-08-27T00:26:47.969Z,7.28
2022-08-27T00:29:15.456Z,8.70
2022-08-27T00:31:42.989Z,8.55
2022-08-27T00:34:13.036Z,8.35
2022-08-27T00:36:41.914Z,7.60
2022-08-27T00:39:09.676Z,8.20
2022-08-27T00:41:39.430Z,8.93
2022-08-27T00:44:07.567Z,8.13
2022-08-27T00:46:54.172Z,8.53
2022-08-27T00:49:32.249Z,10.00
2022-08-27T00:52:13.036Z,7.68
2022-08-27T00:54:41.269Z,9.18
2022-08-27T00:57:08.884Z,9.25
2022-08-27T00:59:37.057Z,8.88
2022-08-27T01:02:19.967Z,9.00
2022-08-27T01:05:06.972Z,10.05
2022-08-27T01:07:41.066Z,8.15
2022-08-27T01:10:14.074Z,8.93
2022-08-27T01:12:42.483Z,8.23
2022-08-27T01:15:19.459Z,10.00
2022-08-27T01:17:48.905Z,10.05
2022-08-27T01:20:25.817Z,8.82
2022-08-27T01:23:16.660Z,8.55
2022-08-27T01:25:44.992Z,9.68
2022-08-27T01:28:14.102Z,9.57
2022-08-27T01:30:42.485Z,8.80
2022-08-27T01:33:18.165Z,8.63
2022-08-27T01:35:49.636Z,8.63
2022-08-27T01:38:30.067Z,9.13
2022-08-27T01:41:01.312Z,9.20
2022-08-27T01:43:31.381Z,9.98
2022-08-27T01:45:59.767Z,8.95
2022-08-27T01:48:27.366Z,9.75
2022-08-27T01:50:54.904Z,9.13
2022-08-27T01:53:25.252Z,8.25
2022-08-27T01:55:54.689Z,9.38
2022-08-27T01:58:29.160Z,9.48
2022-08-27T02:01:05.590Z,8.57
2022-08-27T02:03:36.996Z,8.88
2022-08-27T02:06:09.388Z,10.35
2022-08-27T02:08:37.995Z,8.75
2022-08-27T02:11:08.326Z,8.93
2022-08-27T02:13:36.632Z,9.02
2022-08-27T02:16:04.607Z,8.98
2022-08-27T02:18:32.475Z,8.73
2022-08-27T02:21:00.028Z,8.20
2022-08-27T02:23:27.491Z,8.88
2022-08-27T02:25:55.220Z,8.23
2022-08-27T02:28:22.865Z,8.38
2022-08-27T02:30:50.389Z,8.75
2022-08-27T02:33:18.156Z,9.35
2022-08-27T02:35:45.619Z,9.40
2022-08-27T02:38:14.166Z,9.10
2022-08-27T02:40:41.966Z,10.15
2022-08-27T02:43:09.626Z,8.88
2022-08-27T02:45:43.196Z,10.75
2022-08-27T02:48:11.125Z,10.15
2022-08-27T02:50:39.070Z,9.68
2022-08-27T02:53:07.393Z,9.93
2022-08-27T02:55:35.778Z,10.30
2022-08-27T03:00:33.728Z,10.98
2022-08-27T03:03:02.514Z,11.35
2022-08-27T03:05:30.141Z,10.50
2022-08-27T03:07:59.457Z,10.43
2022-08-27T03:10:26.943Z,10.18
2022-08-27T03:12:54.404Z,11.25
2022-08-27T03:15:22.304Z,10.77
2022-08-27T03:18:09.673Z,10.60
2022-08-27T03:20:44.499Z,11.30
2022-08-27T03:23:14.683Z,10.20
2022-08-27T03:25:53.229Z,10.75
2022-08-27T03:28:27.786Z,11.75
2022-08-27T03:31:01.190Z,11.05
2022-08-27T03:33:36.587Z,11.20
2022-08-27T03:36:07.534Z,11.02
2022-08-27T03:38:36.305Z,11.35
2022-08-27T03:41:05.034Z,10.90
2022-08-27T03:43:32.991Z,10.63
2022-08-27T03:46:02.372Z,9.95
2022-08-27T03:48:32.155Z,10.70
2022-08-27T03:51:11.010Z,11.80
2022-08-27T03:53:42.051Z,10.75
2022-08-27T03:56:10.461Z,11.27
2022-08-27T03:58:39.069Z,10.57
2022-08-27T04:01:08.521Z,10.75
2022-08-27T04:03:36.897Z,11.25
2022-08-27T04:06:05.274Z,11.52
2022-08-27T04:08:33.111Z,11.75
2022-08-27T04:11:01.057Z,10.67
2022-08-27T04:13:28.537Z,10.23
2022-08-27T04:15:56.774Z,11.05
2022-08-27T04:18:24.671Z,10.93
2022-08-27T04:20:52.776Z,12.00
2022-08-27T04:23:20.712Z,11.27
2022-08-27T04:25:48.922Z,11.55
2022-08-27T04:28:17.935Z,11.38
2022-08-27T04:33:15.369Z,11.57
2022-08-27T04:35:43.191Z,10.50
2022-08-27T04:38:10.761Z,12.20
2022-08-27T04:40:57.480Z,11.70
2022-08-27T04:43:27.591Z,11.88
2022-08-27T04:45:55.518Z,12.07
2022-08-27T04:48:23.002Z,11.02
2022-08-27T04:50:50.506Z,10.77
2022-08-27T04:53:18.419Z,11.45
2022-08-27T04:55:51.135Z,10.70
2022-08-27T04:58:20.792Z,10.32
2022-08-27T05:01:01.599Z,11.45
2022-08-27T05:03:29.555Z,10.82
2022-08-27T05:06:05.572Z,10.15
2022-08-27T05:08:34.364Z,11.68
2022-08-27T05:11:02.514Z,10.52
2022-08-27T05:13:30.494Z,10.57
2022-08-27T05:16:02.555Z,11.00
2022-08-27T05:18:33.266Z,10.63
2022-08-27T05:21:04.149Z,10.85
2022-08-27T05:23:32.545Z,10.73
2022-08-27T05:26:04.454Z,10.05
2022-08-27T05:28:32.024Z,9.93
2022-08-27T05:31:11.424Z,10.82
2022-08-27T05:33:41.062Z,11.18
2022-08-27T05:36:17.036Z,11.15
2022-08-27T05:38:44.887Z,10.02
2022-08-27T05:41:16.038Z,11.68
2022-08-27T05:43:49.135Z,10.43
2022-08-27T05:46:23.063Z,11.20
2022-08-27T05:48:52.312Z,10.15
2022-08-27T05:51:25.666Z,9.35
2022-08-27T05:54:11.064Z,9.38
2022-08-27T05:56:39.252Z,10.18
2022-08-27T05:59:25.673Z,9.43
2022-08-27T06:01:56.552Z,11.25
2022-08-27T06:04:25.872Z,9.73
2022-08-27T06:06:53.958Z,12.82
2022-08-27T06:09:25.970Z,12.77
2022-08-27T06:11:55.655Z,11.63
2022-08-27T06:14:24.089Z,11.40
2022-08-27T06:16:51.620Z,10.67
2022-08-27T06:19:19.347Z,10.20
2022-08-27T06:22:01.004Z,10.50
2022-08-27T06:24:36.325Z,10.82
2022-08-27T06:27:04.306Z,9.52
2022-08-27T06:29:31.958Z,9.57
2022-08-27T06:31:59.404Z,10.27
2022-08-27T06:34:27.217Z,10.23
2022-08-27T06:36:55.102Z,8.85
2022-08-27T06:39:22.602Z,10.43
2022-08-27T06:41:50.763Z,9.15
2022-08-27T06:44:24.335Z,10.05
2022-08-27T06:46:52.447Z,9.23
2022-08-27T06:49:20.536Z,9.00
2022-08-27T06:51:48.451Z,9.48
2022-08-27T06:54:17.350Z,9.40
2022-08-27T06:56:45.021Z,9.18
2022-08-27T06:59:17.478Z,9.45
2022-08-27T07:01:51.283Z,8.23
2022-08-27T07:04:30.741Z,8.70
2022-08-27T07:07:02.655Z,9.23
2022-08-27T07:09:34.306Z,9.65
2022-08-27T07:12:02.646Z,8.25
2022-08-27T07:14:36.961Z,9.00
2022-08-27T07:17:11.202Z,9.93
2022-08-27T07:19:44.446Z,9.17
2022-08-27T07:22:13.106Z,8.35
2022-08-27T07:24:44.006Z,7.82
2022-08-27T07:27:12.702Z,8.27
2022-08-27T07:29:40.326Z,7.88
2022-08-27T07:32:07.797Z,8.85
2022-08-27T07:34:35.577Z,9.43
2022-08-27T07:37:03.264Z,8.57
2022-08-27T07:39:30.850Z,8.43
2022-08-27T07:42:17.353Z,8.02
2022-08-27T07:44:44.972Z,9.23
2022-08-27T07:47:13.662Z,10.37
2022-08-27T07:49:41.200Z,8.98
2022-08-27T07:52:08.985Z,8.43
2022-08-27T07:54:36.733Z,7.85
2022-08-27T07:57:04.926Z,7.43
2022-08-27T07:59:32.396Z,8.75
2022-08-27T08:02:00.729Z,6.90
2022-08-27T08:04:28.232Z,8.07
2022-08-27T08:06:56.611Z,8.45
2022-08-27T08:09:25.121Z,8.57
2022-08-27T08:11:54.026Z,8.38
2022-08-27T08:14:22.242Z,8.77
2022-08-27T08:16:50.680Z,7.80
2022-08-27T08:19:18.766Z,7.97
2022-08-27T08:21:46.300Z,9.07
2022-08-27T08:24:13.989Z,7.82
2022-08-27T08:26:42.163Z,9.13
2022-08-27T08:29:13.348Z,11.50
2022-08-27T08:31:46.910Z,18.52
2022-08-27T08:34:19.873Z,16.02
2022-08-27T08:36:54.434Z,11.13
2022-08-27T08:39:24.368Z,15.02
2022-08-27T08:42:03.087Z,9.73
2022-08-27T08:44:45.732Z,8.82
2022-08-27T08:47:25.023Z,11.25
2022-08-27T08:50:05.174Z,13.52
2022-08-27T08:53:20.058Z,12.88
2022-08-27T08:55:54.673Z,9.18
2022-08-27T08:58:28.006Z,7.47
2022-08-27T09:01:02.241Z,7.47
2022-08-27T09:03:36.551Z,8.60
2022-08-27T09:06:26.225Z,8.15
2022-08-27T09:08:54.849Z,8.98
2022-08-27T09:14:47.141Z,7.10
2022-08-27T09:17:14.894Z,7.80
2022-08-27T09:19:43.238Z,11.68
2022-08-27T09:22:32.590Z,7.70
2022-08-27T09:25:26.549Z,7.43
2022-08-27T09:27:59.725Z,6.60
2022-08-27T09:30:32.533Z,5.97
2022-08-27T09:33:04.452Z,7.13
2022-08-27T09:35:44.835Z,6.75
2022-08-27T09:38:31.879Z,5.72
2022-08-27T09:41:19.770Z,6.30
2022-08-27T09:44:08.017Z,5.63
2022-08-27T09:46:35.908Z,5.28
2022-08-27T09:49:17.539Z,5.18
2022-08-27T09:51:48.017Z,6.57
2022-08-27T09:54:42.631Z,5.13
2022-08-27T09:57:14.329Z,5.20
2022-08-27T09:59:53.902Z,6.22
2022-08-27T10:02:25.562Z,6.30
2022-08-27T10:04:58.768Z,6.00
2022-08-27T10:08:04.639Z,6.05
2022-08-27T10:10:57.663Z,5.30
2022-08-27T10:13:52.787Z,4.95
2022-08-27T10:17:10.087Z,4.85
2022-08-27T10:19:40.541Z,3.85
2022-08-27T10:22:28.778Z,4.60
2022-08-27T10:27:41.911Z,4.43
2022-08-27T10:30:17.292Z,4.80
2022-08-27T10:33:11.556Z,3.75
2022-08-27T10:36:04.213Z,3.67
2022-08-27T10:38:46.407Z,4.25
2022-08-27T10:41:29.859Z,4.82
2022-08-27T10:44:37.717Z,3.60
2022-08-27T10:47:30.949Z,3.90
2022-08-27T10:50:03.311Z,4.22
2022-08-27T10:52:59.229Z,5.35
2022-08-27T10:55:45.981Z,5.25
2022-08-27T10:58:41.031Z,4.60
2022-08-27T11:01:25.083Z,3.70
2022-08-27T11:04:26.535Z,4.65
2022-08-27T11:07:03.664Z,3.85
2022-08-27T11:09:52.579Z,3.95
2022-08-27T11:12:38.437Z,3.90
2022-08-27T11:15:17.691Z,4.35
2022-08-27T11:18:08.503Z,4.25
2022-08-27T11:21:05.409Z,3.80
2022-08-27T11:23:53.058Z,3.70
2022-08-27T11:28:58.706Z,3.50
2022-08-27T11:31:38.310Z,3.35
2022-08-27T11:34:26.677Z,3.42
2022-08-27T11:37:28.058Z,4.50
2022-08-27T11:40:20.630Z,3.80
2022-08-27T11:43:01.898Z,4.25
2022-08-27T11:45:40.499Z,2.95
2022-08-27T11:48:28.464Z,2.03
2022-08-27T11:51:02.543Z,3.88
2022-08-27T11:53:52.067Z,2.67
2022-08-27T11:56:36.915Z,2.53
2022-08-27T11:59:33.149Z,3.80
2022-08-27T12:02:30.121Z,4.65
2022-08-27T12:05:32.751Z,4.13
2022-08-27T12:08:14.019Z,4.57
2022-08-27T12:11:37.269Z,3.83
2022-08-27T12:14:04.657Z,4.40
2022-08-27T12:17:13.633Z,3.97
2022-08-27T12:19:59.586Z,4.20
2022-08-27T12:23:27.420Z,3.60
2022-08-27T12:25:58.715Z,4.05
2022-08-27T12:28:27.756Z,3.60
2022-08-27T12:30:56.283Z,4.95
2022-08-27T12:33:41.741Z,3.85
2022-08-27T12:36:19.953Z,3.33
2022-08-27T12:38:58.551Z,3.33
2022-08-27T12:41:44.529Z,3.45
2022-08-27T12:44:33.229Z,2.60
2022-08-27T12:47:07.684Z,3.15
2022-08-27T12:49:58.712Z,4.03
2022-08-27T12:52:53.870Z,3.22
2022-08-27T12:55:26.298Z,3.08
2022-08-27T12:58:12.259Z,3.05
2022-08-27T13:01:25.066Z,2.83
2022-08-27T13:03:54.942Z,2.63
2022-08-27T13:06:34.412Z,3.80
2022-08-27T13:09:07.279Z,3.00
2022-08-27T13:11:49.141Z,3.15
2022-08-27T13:14:20.610Z,3.55
2022-08-27T13:17:00.541Z,3.78
2022-08-27T13:19:31.264Z,3.00
2022-08-27T13:22:05.152Z,3.47
2022-08-27T13:24:37.262Z,3.63
2022-08-27T13:27:06.490Z,3.60
2022-08-27T13:29:35.068Z,5.30
2022-08-27T13:32:03.215Z,4.10
2022-08-27T13:34:38.208Z,4.07
2022-08-27T13:37:22.089Z,5.32
2022-08-27T13:39:55.544Z,5.07
2022-08-27T13:42:26.166Z,4.43
2022-08-27T13:45:01.439Z,4.38
2022-08-27T13:47:30.850Z,4.57
2022-08-27T13:50:23.897Z,7.22
2022-08-27T13:53:12.788Z,6.40
2022-08-27T13:55:47.857Z,4.25
2022-08-27T13:58:31.569Z,4.55
2022-08-27T14:01:27.576Z,5.28
2022-08-27T14:04:26.219Z,5.25
2022-08-27T14:06:54.754Z,3.80
2022-08-27T14:09:29.354Z,4.80
2022-08-27T14:12:04.823Z,4.05
2022-08-27T14:14:39.954Z,4.88
2022-08-27T14:17:29.703Z,4.65
2022-08-27T14:20:02.845Z,5.10
2022-08-27T14:22:34.306Z,4.28
2022-08-27T14:25:03.070Z,2.65
2022-08-27T14:27:32.330Z,3.53
2022-08-27T14:29:59.998Z,3.63
2022-08-27T14:32:27.761Z,3.65
2022-08-27T14:34:55.254Z,3.77
2022-08-27T14:37:22.864Z,3.07
2022-08-27T14:39:51.075Z,3.60
2022-08-27T14:42:20.045Z,2.80
2022-08-27T14:44:47.555Z,2.65
2022-08-27T14:47:18.492Z,3.90
2022-08-27T14:49:47.442Z,3.03
2022-08-27T14:52:15.808Z,3.38
2022-08-27T14:54:44.745Z,3.40
2022-08-27T14:57:13.825Z,3.13
2022-08-27T14:59:41.385Z,3.58
2022-08-27T15:02:13.908Z,3.67
2022-08-27T15:04:42.321Z,2.83
2022-08-27T15:07:15.623Z,3.30
2022-08-27T15:09:44.475Z,3.10
2022-08-27T15:12:26.024Z,2.72
2022-08-27T15:14:56.124Z,4.03
2022-08-27T15:17:34.434Z,3.13
2022-08-27T15:20:19.785Z,2.78
2022-08-27T15:22:51.229Z,2.45
2022-08-27T15:25:20.947Z,2.72
2022-08-27T15:27:49.547Z,3.75
2022-08-27T15:30:22.738Z,3.40
2022-08-27T15:32:50.599Z,3.42
2022-08-27T15:35:23.336Z,5.20
2022-08-27T15:37:50.961Z,3.97
2022-08-27T15:40:20.260Z,3.88
2022-08-27T15:42:55.858Z,3.80
2022-08-27T15:45:25.780Z,3.80
2022-08-27T15:47:57.288Z,3.60
2022-08-27T15:50:26.768Z,3.17
2022-08-27T15:53:01.386Z,3.60
2022-08-27T15:55:35.005Z,3.70
2022-08-27T15:58:03.363Z,3.92
2022-08-27T16:00:33.836Z,3.67
2022-08-27T16:03:05.389Z,5.45
2022-08-27T16:05:37.587Z,5.95
2022-08-27T16:08:06.216Z,6.38
2022-08-27T16:10:35.310Z,6.18
2022-08-27T16:13:03.502Z,5.97
2022-08-27T16:15:34.181Z,6.97
2022-08-27T16:18:04.503Z,7.22
2022-08-27T16:20:32.262Z,7.43
2022-08-27T16:23:00.644Z,6.65
2022-08-27T16:25:28.637Z,5.55
2022-08-27T16:27:58.007Z,5.38
2022-08-27T16:30:26.922Z,6.72
2022-08-27T16:32:55.902Z,5.35
2022-08-27T16:35:25.046Z,5.13
2022-08-27T16:37:52.605Z,5.88
2022-08-27T16:40:21.030Z,4.93
2022-08-27T16:42:51.306Z,4.47
2022-08-27T16:45:26.272Z,4.50
2022-08-27T16:48:13.379Z,4.80
2022-08-27T16:50:41.596Z,4.47
2022-08-27T16:53:15.859Z,5.93
2022-08-27T16:55:45.692Z,4.57
2022-08-27T16:58:26.876Z,5.15
2022-08-27T17:01:07.297Z,4.72
2022-08-27T17:04:16.352Z,5.05
2022-08-27T17:06:44.778Z,5.47
2022-08-27T17:09:13.984Z,5.75
2022-08-27T17:11:43.439Z,7.22
2022-08-27T17:14:12.281Z,15.60
2022-08-27T17:16:41.697Z,12.65
2022-08-27T17:19:14.198Z,6.10
2022-08-27T17:21:45.822Z,6.35
2022-08-27T17:24:13.736Z,6.03
2022-08-27T17:26:41.431Z,5.30
2022-08-27T17:29:09.211Z,17.30
2022-08-27T17:31:40.718Z,10.60
2022-08-27T17:34:17.930Z,5.50
2022-08-27T17:36:46.282Z,3.13
2022-08-27T17:39:14.854Z,3.22
2022-08-27T17:41:48.911Z,3.33
2022-08-27T17:44:35.105Z,3.53
2022-08-27T17:47:07.566Z,4.00
2022-08-27T17:49:36.224Z,4.28
2022-08-27T17:52:15.273Z,3.97
2022-08-27T17:54:47.775Z,4.88
2022-08-27T17:57:25.472Z,4.75
2022-08-27T17:59:55.613Z,4.53
2022-08-27T18:02:35.055Z,6.03
2022-08-27T18:05:04.638Z,6.32
2022-08-27T18:07:36.660Z,5.00
2022-08-27T18:10:09.563Z,4.15
2022-08-27T18:12:37.629Z,5.13
2022-08-27T18:15:19.076Z,4.95
2022-08-27T18:17:53.432Z,3.85
2022-08-27T18:20:27.557Z,4.18
2022-08-27T18:22:55.846Z,4.88
2022-08-27T18:25:27.142Z,5.37
2022-08-27T18:28:02.914Z,4.35
2022-08-27T18:30:31.617Z,4.40
2022-08-27T18:33:00.075Z,5.32
2022-08-27T18:35:32.081Z,5.85
2022-08-27T18:38:00.314Z,6.40
2022-08-27T18:40:34.787Z,5.77
2022-08-27T18:43:05.402Z,4.90
2022-08-27T18:45:36.025Z,5.13
2022-08-27T18:48:13.061Z,4.57
2022-08-27T18:50:48.559Z,5.30
2022-08-27T18:53:20.844Z,5.10
2022-08-27T18:55:51.497Z,5.15
2022-08-27T18:58:20.027Z,4.65
2022-08-27T19:00:53.449Z,5.10
2022-08-27T19:03:31.312Z,4.80
2022-08-27T19:06:00.526Z,4.15
2022-08-27T19:08:28.938Z,4.47
2022-08-27T19:10:56.668Z,4.17
2022-08-27T19:13:24.187Z,3.70
2022-08-27T19:16:06.420Z,3.57
2022-08-27T19:18:37.818Z,5.05
2022-08-27T19:21:07.417Z,5.00
2022-08-27T19:23:36.187Z,5.55
2022-08-27T19:28:42.043Z,4.45
2022-08-27T19:31:09.532Z,5.18
2022-08-27T19:33:38.121Z,4.78
2022-08-27T19:36:11.469Z,5.82
2022-08-27T19:38:43.693Z,5.50
2022-08-27T19:41:11.804Z,6.32
2022-08-27T19:43:39.286Z,10.87
2022-08-27T19:46:16.055Z,15.73
2022-08-27T19:48:43.777Z,8.90
2022-08-27T19:51:11.659Z,6.43
2022-08-27T19:53:39.880Z,6.45
2022-08-27T19:56:15.428Z,6.65
2022-08-27T19:58:45.176Z,6.93
2022-08-27T20:01:13.008Z,6.18
2022-08-27T20:03:41.354Z,6.40
2022-08-27T20:06:09.401Z,18.98
2022-08-27T20:08:36.892Z,11.63
2022-08-27T20:11:04.465Z,9.55
2022-08-27T20:13:34.651Z,6.60
2022-08-27T20:16:03.514Z,6.10
2022-08-27T20:18:32.443Z,5.55
2022-08-27T20:21:00.168Z,5.32
2022-08-27T20:23:33.820Z,5.57
2022-08-27T20:26:01.700Z,5.75
2022-08-27T20:28:44.581Z,4.63
2022-08-27T20:31:12.606Z,5.20
2022-08-27T20:33:40.194Z,5.03
2022-08-27T20:36:08.654Z,5.97
2022-08-27T20:38:36.583Z,6.65
2022-08-27T20:41:05.510Z,5.47
2022-08-27T20:46:02.580Z,4.75
2022-08-27T20:48:30.195Z,4.97
2022-08-27T20:50:57.720Z,5.13
2022-08-27T20:53:26.053Z,5.13
2022-08-27T20:55:56.697Z,5.55
2022-08-27T20:58:44.205Z,5.25
2022-08-27T21:01:13.146Z,5.30
2022-08-27T21:03:40.782Z,5.97
2022-08-27T21:06:09.184Z,4.72
2022-08-27T21:08:39.854Z,5.60
2022-08-27T21:11:13.869Z,5.82
2022-08-27T21:13:55.625Z,6.28
2022-08-27T21:16:25.448Z,6.22
2022-08-27T21:18:53.923Z,5.60
2022-08-27T21:21:22.975Z,5.18
2022-08-27T21:26:19.647Z,4.85
2022-08-27T21:28:47.129Z,5.30
2022-08-27T21:31:14.599Z,5.13
2022-08-27T21:33:42.391Z,5.22
2022-08-27T21:36:12.168Z,5.60
2022-08-27T21:38:40.756Z,5.53
2022-08-27T21:41:08.957Z,6.45
2022-08-27T21:43:36.751Z,5.43
2022-08-27T21:46:04.845Z,5.38
2022-08-27T21:48:32.818Z,5.70
2022-08-27T21:51:11.725Z,5.30
2022-08-27T21:56:11.058Z,5.32
2022-08-27T21:58:38.821Z,5.60
2022-08-27T22:01:07.155Z,5.78
2022-08-27T22:03:36.163Z,4.95
2022-08-27T22:08:35.129Z,5.43
2022-08-27T22:11:03.123Z,4.70
2022-08-27T22:13:31.161Z,4.78
2022-08-27T22:15:59.023Z,4.40
2022-08-27T22:18:26.804Z,4.45
2022-08-27T22:20:58.775Z,5.18
2022-08-27T22:23:27.754Z,5.07
2022-08-27T22:25:55.447Z,4.45
2022-08-27T22:28:23.492Z,6.03
2022-08-27T22:30:51.260Z,5.20
2022-08-27T22:33:18.999Z,5.60
2022-08-27T22:35:46.839Z,4.30
2022-08-27T22:38:14.894Z,4.23
2022-08-27T22:40:42.609Z,4.60
2022-08-27T22:43:10.219Z,4.70
2022-08-27T22:45:37.985Z,4.18
2022-08-27T22:48:05.686Z,7.55
2022-08-27T22:50:33.257Z,5.70
2022-08-27T22:53:01.344Z,5.82
2022-08-27T22:55:29.335Z,4.90
2022-08-27T22:57:56.880Z,6.18
2022-08-27T23:00:32.812Z,5.93
2022-08-27T23:03:01.909Z,6.10
2022-08-27T23:05:41.921Z,5.18
2022-08-27T23:08:12.122Z,7.97
2022-08-27T23:10:41.754Z,6.07
2022-08-27T23:13:11.828Z,7.38
2022-08-27T23:15:39.837Z,8.65
2022-08-27T23:18:07.628Z,7.75
2022-08-27T23:20:35.705Z,6.78
2022-08-27T23:23:03.665Z,6.80
2022-08-27T23:25:50.125Z,7.47
2022-08-27T23:28:17.992Z,7.60
2022-08-27T23:30:46.274Z,7.68
2022-08-27T23:33:14.485Z,7.65
2022-08-27T23:35:47.645Z,7.25
2022-08-27T23:38:18.244Z,6.03
2022-08-27T23:40:47.370Z,6.55
2022-08-27T23:43:15.373Z,6.07
2022-08-27T23:45:43.635Z,5.25
2022-08-27T23:48:11.868Z,5.35
2022-08-27T23:50:40.827Z,6.03
2022-08-27T23:55:40.155Z,5.90
2022-08-27T23:58:08.987Z,5.07
